Time;durP1;ratioP1;P1;durP2;ratioP2;P2;SDS_P1;SDS_P2;PMS_P1;PMS_P2;Temp;Humidity;BMP_temperature;BMP_pressure;BME280_temperature;BME280_humidity;BME280_pressure;Samples;Min_cycle;Max_cycle;Signal;HPM_P1;HPM_P2
2021/01/27 00:00:06;;;;;;;8.50;4.87;;;;;;;-1.88;83.96;99410.59;5053250;28;20138;-79
2021/01/27 00:02:33;;;;;;;8.43;4.90;;;;;;;-1.83;84.25;99414.66;5052851;28;20061;-79
2021/01/27 00:05:00;;;;;;;9.20;5.10;;;;;;;-1.76;84.21;99417.81;5051945;28;20049;-79
2021/01/27 00:07:26;;;;;;;9.63;4.80;;;;;;;-1.99;83.79;99401.50;5052553;28;20041;-79
2021/01/27 00:09:52;;;;;;;6.87;3.87;;;;;;;-1.88;83.79;99423.91;5053093;28;20324;-79
2021/01/27 00:12:19;;;;;;;7.03;4.37;;;;;;;-1.83;83.60;99427.16;5053256;28;20053;-79
2021/01/27 00:14:46;;;;;;;10.60;4.80;;;;;;;-1.85;82.92;99416.59;5051578;28;20048;-79
2021/01/27 00:17:12;;;;;;;10.83;5.20;;;;;;;-2.00;82.92;99410.44;5033259;28;20053;-79
2021/01/27 00:19:38;;;;;;;6.73;4.60;;;;;;;-1.94;83.04;99405.66;5047085;28;20083;-79
2021/01/27 00:22:04;;;;;;;7.97;4.43;;;;;;;-2.04;83.29;99392.09;5051521;28;20057;-79
2021/01/27 00:24:31;;;;;;;6.20;4.50;;;;;;;-1.96;83.02;99387.97;5051263;28;20056;-79
2021/01/27 00:26:57;;;;;;;7.93;4.77;;;;;;;-2.04;82.60;99376.94;5052782;28;20497;-79
2021/01/27 00:29:25;;;;;;;6.37;4.60;;;;;;;-2.22;83.70;99351.50;5051754;28;20427;-79
2021/01/27 00:31:51;;;;;;;11.77;5.10;;;;;;;-2.09;82.98;99359.56;5052381;28;20110;-79
2021/01/27 00:34:21;;;;;;;9.33;5.03;;;;;;;-2.05;84.15;99364.56;5034482;28;20048;-79
2021/01/27 00:36:47;;;;;;;8.83;5.57;;;;;;;-1.92;84.75;99383.28;5052809;28;20088;-79
2021/01/27 00:39:14;;;;;;;14.00;5.87;;;;;;;-1.85;84.28;99384.59;5051692;28;20060;-79
2021/01/27 00:41:40;;;;;;;11.17;5.87;;;;;;;-1.77;84.72;99368.09;5052936;28;20048;-79
2021/01/27 00:44:06;;;;;;;7.20;5.17;;;;;;;-1.79;84.84;99380.69;5051957;28;20067;-79
2021/01/27 00:46:33;;;;;;;10.67;6.17;;;;;;;-1.89;84.73;99358.25;5052582;28;20489;-79
2021/01/27 00:49:00;;;;;;;10.20;5.40;;;;;;;-1.80;84.22;99355.84;5051599;28;20500;-79
2021/01/27 00:51:26;;;;;;;15.17;5.23;;;;;;;-1.82;84.84;99354.25;5051418;28;20409;-79
2021/01/27 00:53:53;;;;;;;11.97;5.50;;;;;;;-1.88;84.69;99350.16;5052478;28;20133;-79
2021/01/27 00:56:20;;;;;;;9.70;5.13;;;;;;;-1.94;85.00;99326.59;5051195;28;20041;-79
2021/01/27 00:58:46;;;;;;;7.43;5.17;;;;;;;-1.81;84.80;99353.28;5051857;28;20055;-79
2021/01/27 01:01:12;;;;;;;8.77;5.33;;;;;;;-1.78;84.72;99342.41;5052280;28;20049;-80
2021/01/27 01:03:40;;;;;;;8.40;5.57;;;;;;;-1.78;84.75;99339.75;5051920;28;20049;-79
2021/01/27 01:06:06;;;;;;;8.97;5.60;;;;;;;-1.87;84.44;99324.38;5050369;28;20048;-78
2021/01/27 01:08:32;;;;;;;15.20;5.70;;;;;;;-1.94;84.40;99329.25;5051383;28;20068;-79
2021/01/27 01:11:00;;;;;;;12.63;5.30;;;;;;;-1.91;84.58;99333.50;5051952;28;20045;-79
2021/01/27 01:13:28;;;;;;;13.57;4.60;;;;;;;-1.85;84.38;99344.63;5050554;28;20401;-79
2021/01/27 01:15:55;;;;;;;9.53;5.80;;;;;;;-1.77;84.38;99340.63;5051576;28;20053;-79
2021/01/27 01:18:21;;;;;;;9.50;5.07;;;;;;;-1.87;84.65;99348.34;5051120;28;20045;-79
2021/01/27 01:20:49;;;;;;;9.37;4.67;;;;;;;-1.94;84.49;99323.94;5051125;28;20516;-79
2021/01/27 01:23:16;;;;;;;8.90;5.30;;;;;;;-1.73;83.75;99342.97;5051253;28;20052;-79
2021/01/27 01:25:43;;;;;;;8.10;5.03;;;;;;;-1.82;84.13;99347.09;5050773;28;20049;-79
2021/01/27 01:28:09;;;;;;;8.33;4.90;;;;;;;-1.80;83.46;99315.84;5051226;28;20095;-79
2021/01/27 01:30:37;;;;;;;8.27;4.67;;;;;;;-1.62;83.30;99335.09;5050662;28;20048;-79
2021/01/27 01:33:06;;;;;;;6.87;4.30;;;;;;;-1.85;83.36;99298.44;5050471;28;20055;-79
2021/01/27 01:35:32;;;;;;;6.60;4.13;;;;;;;-1.98;84.01;99295.78;5051538;28;20053;-79
2021/01/27 01:37:59;;;;;;;8.67;4.63;;;;;;;-1.86;83.65;99332.25;5050802;28;20041;-77
2021/01/27 01:40:28;;;;;;;7.87;4.27;;;;;;;-1.94;83.51;99301.75;5050784;28;20102;-77
2021/01/27 01:43:08;;;;;;;10.27;5.28;;;;;;;-1.90;83.54;99316.56;5051363;28;20489;-79
2021/01/27 01:45:37;;;;;;;8.48;3.42;;;;;;;-2.10;83.99;99302.75;5050582;28;20045;-79
2021/01/27 01:48:12;;;;;;;8.40;4.20;;;;;;;-2.11;82.69;99302.88;5051004;28;20045;-79
2021/01/27 01:50:39;;;;;;;6.07;4.03;;;;;;;-2.24;83.28;99281.50;5049700;28;20053;-79
2021/01/27 01:53:06;;;;;;;7.37;4.33;;;;;;;-2.02;83.17;99318.22;5051018;28;20048;-79
2021/01/27 01:55:33;;;;;;;7.90;4.37;;;;;;;-2.10;83.41;99307.25;5050644;28;20067;-79
2021/01/27 01:58:01;;;;;;;5.40;4.33;;;;;;;-2.00;82.57;99311.84;5048658;28;20052;-79
2021/01/27 02:00:31;;;;;;;6.70;4.00;;;;;;;-2.11;82.83;99290.38;5051419;28;20076;-79
2021/01/27 02:02:57;;;;;;;5.97;4.00;;;;;;;-2.09;82.85;99293.81;5053910;28;20550;-79
2021/01/27 02:05:26;;;;;;;6.50;4.40;;;;;;;-2.00;82.64;99301.19;5053325;28;20048;-79
2021/01/27 02:07:55;;;;;;;6.13;4.30;;;;;;;-2.01;83.23;99296.81;5046121;28;20083;-79
2021/01/27 02:10:23;;;;;;;5.80;4.38;;;;;;;-2.09;82.90;99283.16;5053176;28;20501;-79
2021/01/27 02:13:01;;;;;;;6.93;4.00;;;;;;;-2.11;83.17;99293.03;5053407;28;20044;-79
2021/01/27 02:16:02;;;;;;;8.03;4.07;;;;;;;-2.33;83.25;99274.97;5053158;28;20045;-79
2021/01/27 02:18:46;;;;;;;7.97;4.30;;;;;;;-2.39;83.62;99275.38;4953367;29;20160;-79
2021/01/27 02:21:31;;;;;;;7.53;4.07;;;;;;;-2.23;83.62;99292.06;5044554;28;20057;-79
2021/01/27 02:24:26;;;;;;;7.77;4.10;;;;;;;-2.45;83.89;99257.13;5053147;28;20053;-79
2021/01/27 02:27:07;;;;;;;12.50;4.77;;;;;;;-2.18;84.44;99292.63;5053436;28;20049;-79
2021/01/27 02:30:02;;;;;;;7.33;4.40;;;;;;;-2.08;83.32;99281.34;5052325;28;20103;-79
2021/01/27 02:32:55;;;;;;;8.13;4.80;;;;;;;-2.35;83.62;99260.91;5052998;28;20057;-79
2021/01/27 02:35:27;;;;;;;6.87;4.20;;;;;;;-2.30;84.23;99258.81;5053003;28;20563;-79
2021/01/27 02:38:00;;;;;;;8.57;5.13;;;;;;;-2.39;84.13;99248.75;5053417;28;20094;-79
2021/01/27 02:40:31;;;;;;;7.57;4.40;;;;;;;-2.37;84.44;99258.34;5053306;28;20045;-79
2021/01/27 02:43:05;;;;;;;10.57;4.87;;;;;;;-2.40;84.48;99233.72;5053478;28;20049;-79
2021/01/27 02:45:35;;;;;;;7.37;4.40;;;;;;;-2.25;84.52;99264.66;5052326;28;20459;-79
2021/01/27 02:48:03;;;;;;;;;;;;;;;-2.25;84.58;99267.34;5053320;28;20045;-79
2021/01/27 02:50:38;;;;;;;5.37;3.90;;;;;;;-2.24;84.67;99266.38;5052302;28;19927;-79
2021/01/27 02:53:12;;;;;;;7.07;4.43;;;;;;;-2.34;84.85;99260.78;5053018;28;20076;-79
2021/01/27 02:55:45;;;;;;;10.00;4.63;;;;;;;-2.22;84.65;99272.47;5052381;28;20053;-79
2021/01/27 02:58:18;;;;;;;7.53;4.57;;;;;;;-2.31;85.02;99262.41;5052885;28;20052;-79
2021/01/27 03:00:50;;;;;;;8.30;4.67;;;;;;;-2.33;84.64;99257.19;5052995;28;20132;-79
2021/01/27 03:03:21;;;;;;;7.47;4.57;;;;;;;-2.29;84.84;99265.81;5052900;28;20057;-79
2021/01/27 03:05:53;;;;;;;6.60;4.40;;;;;;;-2.24;84.68;99263.72;5052349;28;20045;-79
2021/01/27 03:08:22;;;;;;;7.40;4.47;;;;;;;-2.22;84.61;99260.97;5052987;28;20060;-79
2021/01/27 03:10:57;;;;;;;7.93;4.72;;;;;;;-2.22;84.79;99255.63;5052801;28;20048;-79
2021/01/27 03:13:23;;;;;;;6.73;4.63;;;;;;;-2.27;84.67;99231.97;5052958;28;20425;-79
2021/01/27 03:15:49;;;;;;;9.33;4.90;;;;;;;-2.09;84.71;99237.88;5052685;28;20057;-79
2021/01/27 03:18:21;;;;;;;7.23;5.17;;;;;;;-2.06;84.38;99236.78;5052850;28;20056;-79
2021/01/27 03:20:55;;;;;;;9.10;5.07;;;;;;;-2.20;85.01;99229.75;5052696;28;20130;-79
2021/01/27 03:23:26;;;;;;;13.83;6.07;;;;;;;-2.08;84.39;99258.22;5052733;28;20049;-79
2021/01/27 03:25:56;;;;;;;12.10;4.97;;;;;;;-2.15;84.17;99264.94;5052487;28;20057;-79
2021/01/27 03:28:27;;;;;;;10.75;5.35;;;;;;;-2.35;84.83;99248.47;5052348;28;20060;-80
2021/01/27 03:30:53;;;;;;;10.20;4.93;;;;;;;-2.39;84.84;99249.59;5051558;28;20421;-79
2021/01/27 03:33:28;;;;;;;10.23;4.97;;;;;;;-2.31;84.78;99268.59;5052304;28;20060;-79
2021/01/27 03:35:59;;;;;;;9.27;4.80;;;;;;;-2.53;85.27;99242.53;5051785;28;20135;-79
2021/01/27 03:38:29;;;;;;;11.47;5.43;;;;;;;-2.40;85.24;99255.03;5051850;28;20060;-79
2021/01/27 03:41:11;;;;;;;10.53;5.53;;;;;;;-2.46;85.30;99218.16;5051790;28;20507;-79
2021/01/27 03:43:44;;;;;;;7.57;5.20;;;;;;;-2.39;85.53;99224.78;5051869;28;20057;-80
2021/01/27 03:46:18;;;;;;;11.17;5.40;;;;;;;-2.26;85.14;99238.97;5051651;28;20064;-79
2021/01/27 03:48:51;;;;;;;9.13;4.97;;;;;;;-2.27;85.08;99247.94;5051904;28;20049;-79
2021/01/27 03:51:20;;;;;;;8.57;5.90;;;;;;;-2.34;84.85;99218.19;5051088;28;20041;-79
2021/01/27 03:53:46;;;;;;;8.30;5.68;;;;;;;-2.52;84.60;99209.59;5052311;28;20045;-79
2021/01/27 03:56:20;;;;;;;7.47;5.10;;;;;;;-2.42;85.38;99235.66;5043862;28;20106;-79
2021/01/27 03:58:48;;;;;;;8.77;5.50;;;;;;;-2.54;85.34;99227.50;5053723;28;20106;-80
2021/01/27 04:01:17;;;;;;;8.43;5.13;;;;;;;-2.38;85.13;99239.78;5056050;28;20048;-79
2021/01/27 04:03:44;;;;;;;12.65;5.55;;;;;;;-2.34;84.44;99214.69;5055954;28;20064;-79
2021/01/27 04:06:11;;;;;;;8.67;4.90;;;;;;;-2.38;84.97;99230.03;5055799;28;20048;-79
2021/01/27 04:08:39;;;;;;;12.33;5.77;;;;;;;-2.36;85.43;99236.09;5055971;28;20429;-79
2021/01/27 04:11:06;;;;;;;11.97;6.23;;;;;;;-2.42;85.11;99199.22;5055968;28;20060;-79
2021/01/27 04:13:33;;;;;;;8.00;4.90;;;;;;;-2.33;85.16;99211.91;5055188;28;20455;-79
2021/01/27 04:15:59;;;;;;;10.03;5.27;;;;;;;-2.50;85.21;99199.72;5055108;28;20056;-79
2021/01/27 04:18:27;;;;;;;9.30;5.57;;;;;;;-2.33;85.04;99208.41;5055239;28;20064;-79
2021/01/27 04:20:53;;;;;;;11.80;6.20;;;;;;;-2.21;84.59;99214.72;5055186;28;20057;-79
2021/01/27 04:23:20;;;;;;;9.00;5.80;;;;;;;-2.32;84.44;99172.81;5055089;28;20057;-79
2021/01/27 04:25:47;;;;;;;8.07;5.40;;;;;;;-2.16;84.60;99199.28;5054821;28;20492;-80
2021/01/27 04:28:14;;;;;;;9.43;5.80;;;;;;;-2.28;84.22;99160.16;5054956;28;20087;-79
2021/01/27 04:30:40;;;;;;;9.97;6.20;;;;;;;-2.09;84.59;99167.75;5054383;28;20041;-79
2021/01/27 04:33:09;;;;;;;11.27;5.50;;;;;;;-2.22;83.97;99135.78;5054902;28;20106;-79
2021/01/27 04:35:35;;;;;;;9.10;5.63;;;;;;;-2.18;84.13;99135.47;5054916;28;20053;-79
2021/01/27 04:38:03;;;;;;;9.97;5.90;;;;;;;-2.14;83.88;99138.75;5055059;28;20481;-79
2021/01/27 04:40:32;;;;;;;15.90;5.33;;;;;;;-2.08;83.86;99149.00;5055167;28;20128;-79
2021/01/27 04:43:00;;;;;;;10.68;5.32;;;;;;;-2.10;84.13;99142.94;5055014;28;20045;-79
2021/01/27 04:45:27;;;;;;;12.50;5.47;;;;;;;-2.03;83.98;99141.56;5054780;28;20049;-79
2021/01/27 04:48:04;;;;;;;7.73;4.97;;;;;;;-2.06;84.14;99133.78;5055023;28;20052;-79
2021/01/27 04:50:35;;;;;;;8.90;5.33;;;;;;;-2.03;84.20;99133.56;5054636;28;20396;-79
2021/01/27 04:53:15;;;;;;;9.87;4.60;;;;;;;-2.07;83.86;99118.75;5055051;28;20049;-79
2021/01/27 04:56:10;;;;;;;10.85;5.30;;;;;;;-2.16;84.01;99106.91;5054042;28;20474;-79
2021/01/27 04:58:45;;;;;;;8.77;4.83;;;;;;;-2.23;84.58;99097.66;5052508;28;20362;-79
2021/01/27 05:01:34;;;;;;;7.33;5.17;;;;;;;-2.21;84.57;99108.19;5055143;28;20052;-79
2021/01/27 05:04:18;;;;;;;8.23;5.10;;;;;;;-2.20;84.78;99121.41;5054804;28;20049;-79
2021/01/27 05:06:48;;;;;;;8.13;3.97;;;;;;;-2.16;84.85;99114.88;5054807;28;20087;-79
2021/01/27 05:09:15;;;;;;;;;;;;;;;-2.10;84.25;99104.78;5054553;28;20118;-79
2021/01/27 05:11:44;;;;;;;10.30;4.73;;;;;;;-2.17;84.70;99101.69;5054392;28;19928;-79
2021/01/27 05:14:15;;;;;;;9.13;5.07;;;;;;;-2.26;84.39;99094.31;5054042;28;20045;-80
2021/01/27 05:16:41;;;;;;;8.20;4.57;;;;;;;-2.09;84.64;99101.16;5054234;28;20138;-80
2021/01/27 05:19:08;;;;;;;16.70;5.77;;;;;;;-2.05;84.56;99094.66;5036340;28;20049;-80
2021/01/27 05:21:37;;;;;;;10.07;5.20;;;;;;;-2.15;84.85;99092.63;5054325;28;20049;-79
2021/01/27 05:27:07;;;;;;;6.40;4.70;;;;;;;-1.99;84.13;99071.13;5039272;28;20136;-83
2021/01/27 05:29:38;;;;;;;7.63;4.97;;;;;;;-2.16;84.58;99053.63;5050483;28;20052;-82
2021/01/27 05:32:09;;;;;;;9.20;5.30;;;;;;;-2.02;84.46;99074.00;5053937;28;20053;-82
2021/01/27 05:34:37;;;;;;;7.43;4.47;;;;;;;-2.08;84.25;99050.44;5054592;28;20496;-82
2021/01/27 05:37:09;;;;;;;5.83;3.97;;;;;;;-1.83;84.24;99078.03;5054376;28;20110;-83
2021/01/27 05:39:37;;;;;;;5.90;4.67;;;;;;;-1.86;83.88;99055.09;5054012;28;20060;-82
2021/01/27 05:42:22;;;;;;;8.30;4.80;;;;;;;-1.98;83.71;99029.34;5053864;28;20128;-82
2021/01/27 05:44:51;;;;;;;8.87;4.50;;;;;;;-1.87;83.16;99047.22;5053958;28;20044;-82
2021/01/27 05:47:32;;;;;;;7.07;4.43;;;;;;;-1.88;83.56;99045.50;5054120;28;20436;-83
2021/01/27 05:49:58;;;;;;;6.80;4.67;;;;;;;-1.94;83.50;99037.94;5053846;28;20060;-82
2021/01/27 05:52:26;;;;;;;6.43;4.70;;;;;;;-2.02;84.10;99031.38;5053698;28;20049;-82
2021/01/27 05:54:53;;;;;;;8.67;5.10;;;;;;;-2.05;83.92;99015.56;5053623;28;20610;-83
2021/01/27 05:57:24;;;;;;;10.53;4.67;;;;;;;-1.84;83.92;99050.50;5053716;28;20049;-82
2021/01/27 06:00:08;;;;;;;6.57;4.27;;;;;;;-1.80;83.91;99064.47;5053791;28;20049;-83
2021/01/27 06:02:39;;;;;;;6.00;4.40;;;;;;;-1.87;83.37;99053.38;5054087;28;20049;-82
2021/01/27 06:05:08;;;;;;;9.83;5.30;;;;;;;-1.92;83.58;99055.53;5053499;28;20045;-83
2021/01/27 06:07:34;;;;;;;9.73;4.33;;;;;;;-1.80;83.52;99052.00;5033911;28;20053;-83
2021/01/27 06:10:17;;;;;;;6.87;4.57;;;;;;;-1.82;83.70;99040.59;5040507;28;20063;-83
2021/01/27 06:12:43;;;;;;;8.93;4.33;;;;;;;-1.72;83.08;99056.78;5054047;28;20061;-83
2021/01/27 06:15:19;;;;;;;11.37;4.90;;;;;;;-1.91;82.89;99019.94;5053535;28;20053;-83
2021/01/27 06:17:47;;;;;;;8.17;3.70;;;;;;;-1.83;83.19;99012.25;5053571;28;20401;-83
2021/01/27 06:20:32;;;;;;;6.90;4.53;;;;;;;-1.83;83.52;99038.06;5052754;28;20056;-84
2021/01/27 06:23:32;;;;;;;7.57;4.50;;;;;;;-1.85;83.85;99029.28;5053079;28;20056;-83
2021/01/27 06:26:46;;;;;;;7.07;4.00;;;;;;;-1.98;83.52;99002.69;5050696;28;20220;-83
2021/01/27 06:29:24;;;;;;;10.90;4.20;;;;;;;-1.73;83.36;99038.22;4986525;28;20459;-83
2021/01/27 06:32:28;;;;;;;5.50;3.90;;;;;;;-1.77;83.48;99026.09;4991653;28;20050;-84
2021/01/27 06:35:26;;;;;;;8.07;4.43;;;;;;;-1.85;82.82;99002.66;5045594;28;20110;-83
2021/01/27 06:38:11;;;;;;;6.37;4.27;;;;;;;-1.75;82.87;99029.50;5029020;28;20126;-84
2021/01/27 06:40:52;;;;;;;9.87;4.07;;;;;;;-1.72;82.79;99032.78;5034832;28;20057;-84
2021/01/27 06:43:56;;;;;;;4.57;4.03;;;;;;;-1.74;82.84;99041.88;5053627;28;20045;-84
2021/01/27 07:04:06;;;;;;;9.30;4.40;;;;;;;-1.68;83.23;99041.44;5050330;28;20516;-84
2021/01/27 07:06:51;;;;;;;6.13;3.93;;;;;;;-1.73;83.22;99030.22;5031424;28;20111;-84
2021/01/27 07:09:43;;;;;;;5.30;3.97;;;;;;;-1.69;82.40;99035.22;5038910;28;20056;-84
2021/01/27 07:12:21;;;;;;;7.77;3.70;;;;;;;-1.58;82.04;99042.47;5050811;28;20059;-84
2021/01/27 07:15:09;;;;;;;9.63;4.20;;;;;;;-1.61;81.63;99043.53;5049623;28;20049;-84
2021/01/27 07:18:02;;;;;;;9.17;3.63;;;;;;;-1.61;83.34;99054.22;5050897;28;20222;-85
2021/01/27 07:20:35;;;;;;;7.50;3.53;;;;;;;-1.64;82.52;99066.88;5050859;28;20072;-85
2021/01/27 07:23:11;;;;;;;11.77;3.73;;;;;;;-1.79;83.17;99035.06;5051111;28;20061;-85
2021/01/27 07:25:54;;;;;;;11.23;4.33;;;;;;;-1.75;83.40;99050.81;5049617;28;20145;-85
2021/01/27 07:28:28;;;;;;;10.37;4.67;;;;;;;-1.61;83.33;99086.19;5030805;28;20053;-85
2021/01/27 07:31:06;;;;;;;7.43;4.10;;;;;;;-1.81;83.17;99057.44;5041774;28;20121;-85
2021/01/27 07:33:43;;;;;;;8.53;4.60;;;;;;;-1.55;82.73;99098.25;5054148;28;20457;-85
2021/01/27 07:36:37;;;;;;;8.50;4.47;;;;;;;-1.60;83.32;99063.06;5054609;28;20164;-85
2021/01/27 07:39:13;;;;;;;7.73;3.70;;;;;;;-1.58;83.39;99047.81;5052652;28;20417;-85
2021/01/27 07:41:52;;;;;;;7.17;3.97;;;;;;;-1.54;82.73;99059.94;5053355;28;20068;-86
2021/01/27 07:44:20;;;;;;;10.10;4.50;;;;;;;-1.35;82.96;99088.81;5051396;28;20072;-84
2021/01/27 07:46:56;;;;;;;9.00;4.63;;;;;;;-1.31;83.19;99086.75;5056511;28;20045;-83
2021/01/27 07:49:33;;;;;;;7.83;4.03;;;;;;;-1.18;82.55;99094.72;5053369;28;20553;-84
2021/01/27 08:02:10;;;;;;;7.37;4.30;;;;;;;-1.10;82.45;99098.56;5034426;28;20191;-84
2021/01/27 08:04:42;;;;;;;12.70;4.90;;;;;;;-1.09;82.92;99089.56;5053561;28;20429;-84
2021/01/27 08:07:20;;;;;;;10.07;4.83;;;;;;;-0.97;83.02;99095.81;5054422;28;20068;-84
2021/01/27 08:09:46;;;;;;;6.37;4.43;;;;;;;-0.93;83.16;99085.78;5049821;28;20053;-84
2021/01/27 08:12:18;;;;;;;13.57;4.73;;;;;;;-0.85;83.37;99095.88;5053407;28;20460;-85
2021/01/27 08:15:04;;;;;;;6.10;4.10;;;;;;;-0.91;83.66;99087.34;5050133;28;20059;-84
2021/01/27 08:20:42;;;;;;;10.77;5.00;;;;;;;-0.98;83.71;99070.09;5153269;27;20350;-84
2021/01/27 08:23:11;;;;;;;7.45;4.78;;;;;;;-0.93;83.43;99093.78;5133233;27;20123;-84
2021/01/27 08:25:55;;;;;;;9.67;4.50;;;;;;;-0.91;84.20;99105.19;5125922;27;20254;-84
2021/01/27 08:28:42;;;;;;;7.97;4.13;;;;;;;-1.09;84.83;99078.03;5129666;27;20042;-85
2021/01/27 08:31:19;;;;;;;6.47;3.90;;;;;;;-0.99;85.19;99111.09;5119323;28;20040;-84
2021/01/27 08:33:55;;;;;;;7.83;4.03;;;;;;;-0.95;85.95;99127.72;5119982;27;20047;-85
2021/01/27 08:36:42;;;;;;;9.90;5.33;;;;;;;-1.03;85.71;99092.75;5128027;27;20075;-85
2021/01/27 08:39:12;;;;;;;10.20;5.20;;;;;;;-0.90;86.06;99106.91;5116214;27;20044;-85
2021/01/27 08:41:43;;;;;;;;;;;;;;;-0.72;85.54;99115.38;5130477;27;20518;-84
2021/01/27 08:44:23;;;;;;;7.70;4.37;;;;;;;-0.76;85.90;99104.03;5115160;27;19920;-85
2021/01/27 08:46:53;;;;;;;12.77;5.00;;;;;;;-0.82;85.84;99084.97;5115701;28;20046;-85
2021/01/27 08:49:42;;;;;;;11.57;5.03;;;;;;;-0.66;86.02;99098.00;5115518;27;20120;-84
2021/01/27 08:52:35;;;;;;;7.63;4.90;;;;;;;-0.64;86.25;99096.94;5128935;27;20040;-85
2021/01/27 08:55:33;;;;;;;8.47;4.93;;;;;;;-0.62;86.10;99095.00;5114547;27;20056;-85
2021/01/27 08:58:22;;;;;;;8.27;4.97;;;;;;;-0.71;86.40;99071.66;5126796;28;20130;-84
2021/01/27 09:00:50;;;;;;;7.03;4.43;;;;;;;-0.69;86.14;99080.44;5131488;28;20047;-82
2021/01/27 09:04:03;;;;;;;7.97;5.37;;;;;;;-0.47;85.96;99101.00;5129305;27;20062;-83
2021/01/27 09:06:34;;;;;;;11.27;5.00;;;;;;;-0.61;86.70;99083.34;5129337;27;20176;-86
2021/01/27 09:09:11;;;;;;;6.93;4.40;;;;;;;-0.65;86.76;99081.03;5126034;27;20058;-86
2021/01/27 09:11:38;;;;;;;7.10;4.50;;;;;;;-0.49;86.33;99092.25;5118261;27;20475;-86
2021/01/27 09:14:06;;;;;;;7.80;5.03;;;;;;;-0.54;86.29;99081.94;5109612;28;20076;-86
2021/01/27 09:16:33;;;;;;;8.90;5.03;;;;;;;-0.38;86.42;99070.94;5108851;28;20055;-86
2021/01/27 09:19:02;;;;;;;13.43;5.30;;;;;;;-0.37;85.93;99077.13;5109924;28;20044;-86
2021/01/27 09:21:30;;;;;;;7.17;4.97;;;;;;;-0.34;85.79;99057.34;5109736;28;20046;-87
2021/01/27 09:24:01;;;;;;;9.10;4.70;;;;;;;-0.34;85.79;99073.38;5109705;28;20039;-86
2021/01/27 09:26:38;;;;;;;9.53;4.97;;;;;;;-0.34;86.38;99071.53;5108775;28;20048;-86
2021/01/27 09:29:13;;;;;;;6.77;4.33;;;;;;;-0.34;86.15;99062.69;5108732;28;20059;-86
2021/01/27 09:31:42;;;;;;;11.13;4.47;;;;;;;-0.33;86.39;99057.22;5097363;28;20101;-86
2021/01/27 09:34:20;;;;;;;6.53;4.57;;;;;;;-0.39;86.42;99039.84;5095301;28;20052;-86
2021/01/27 09:36:48;;;;;;;7.33;4.50;;;;;;;-0.32;86.45;99044.72;5095276;28;20055;-86
2021/01/27 09:39:25;;;;;;;10.10;4.87;;;;;;;-0.17;86.67;99072.91;5097049;28;20048;-86
2021/01/27 09:41:57;;;;;;;9.50;4.33;;;;;;;-0.42;86.80;99033.88;5095284;28;20048;-86
2021/01/27 09:44:36;;;;;;;17.53;4.10;;;;;;;-0.34;87.01;99044.00;5095055;28;20048;-86
2021/01/27 09:47:08;;;;;;;8.50;4.27;;;;;;;-0.23;86.57;99050.19;5107909;28;20040;-86
2021/01/27 09:49:39;;;;;;;5.73;4.20;;;;;;;-0.05;86.46;99055.91;5114866;28;20058;-86
2021/01/27 09:52:10;;;;;;;9.70;4.70;;;;;;;-0.10;86.63;99063.44;5114099;28;20572;-86
2021/01/27 09:54:44;;;;;;;6.70;4.23;;;;;;;-0.16;86.85;99034.53;5111754;28;20048;-86
2021/01/27 09:57:16;;;;;;;7.67;5.30;;;;;;;0.01;86.50;99051.91;5099222;28;20044;-87
2021/01/27 09:59:48;;;;;;;10.70;5.07;;;;;;;0.14;86.09;99041.13;5100029;28;20075;-87
2021/01/27 10:02:14;;;;;;;8.47;4.83;;;;;;;0.17;85.58;99041.72;5098411;28;20052;-88
2021/01/27 10:04:41;;;;;;;7.33;4.20;;;;;;;0.32;85.36;99031.63;5095140;28;20287;-88
2021/01/27 10:07:15;;;;;;;6.60;4.40;;;;;;;0.46;85.42;99040.34;5095034;28;20515;-88
2021/01/27 10:09:47;;;;;;;12.43;4.70;;;;;;;0.50;84.86;99040.00;5095180;28;20066;-88
2021/01/27 10:12:25;;;;;;;8.17;4.37;;;;;;;0.35;84.58;99007.31;5097601;28;20051;-89
2021/01/27 10:15:02;;;;;;;6.67;4.73;;;;;;;0.59;84.14;99026.81;5112458;28;20051;-88
2021/01/27 10:17:31;;;;;;;6.13;4.03;;;;;;;0.45;84.71;99006.56;5094805;28;20044;-89
2021/01/27 10:20:20;;;;;;;7.35;4.32;;;;;;;0.40;85.49;99001.59;5094486;28;20051;-89
2021/01/27 10:23:00;;;;;;;20.80;5.30;;;;;;;0.44;85.12;98999.53;5112783;28;20174;-89
2021/01/27 10:25:36;;;;;;;6.53;4.20;;;;;;;0.19;85.29;98987.28;5114967;28;20120;-89
2021/01/27 10:28:35;;;;;;;7.00;4.03;;;;;;;0.53;84.79;99020.19;5114471;28;20138;-89
2021/01/27 10:31:04;;;;;;;7.57;3.72;;;;;;;0.53;84.50;98990.75;5097039;28;20052;-89
2021/01/27 10:34:02;;;;;;;4.17;3.40;;;;;;;0.70;84.26;98989.34;5094567;28;20059;-90
2021/01/27 10:36:46;;;;;;;5.47;4.03;;;;;;;0.69;83.74;98980.50;5094471;28;20048;-89
2021/01/27 10:39:26;;;;;;;6.20;3.50;;;;;;;0.54;84.33;98965.69;5094364;28;20048;-90
2021/01/27 10:41:53;;;;;;;;;;;;;;;0.76;84.01;98996.88;5094689;28;20048;-90
2021/01/27 10:44:38;;;;;;;4.33;3.33;;;;;;;0.50;83.77;98957.06;5093387;28;19920;-89
2021/01/27 10:47:31;;;;;;;6.60;3.10;;;;;;;0.58;83.70;98983.19;5103113;28;20068;-90
2021/01/27 10:50:05;;;;;;;6.87;3.60;;;;;;;0.56;83.57;98982.47;5104609;28;20055;-90
2021/01/27 10:52:32;;;;;;;6.93;3.90;;;;;;;0.62;83.79;99006.03;5114251;28;20051;-90
2021/01/27 10:55:11;;;;;;;4.40;3.27;;;;;;;0.43;83.28;98989.78;5107489;28;20063;-90
2021/01/27 10:57:48;;;;;;;6.90;3.53;;;;;;;0.63;83.26;99012.22;5093464;28;20134;-90
2021/01/27 11:00:22;;;;;;;8.47;3.47;;;;;;;0.60;84.17;99024.03;5093516;28;20044;-91
2021/01/27 11:02:48;;;;;;;3.57;2.97;;;;;;;0.68;83.46;99000.19;5097019;28;20043;-90
2021/01/27 11:05:15;;;;;;;7.57;3.73;;;;;;;0.72;83.72;99014.16;5094387;28;20135;-91
2021/01/27 11:10:39;;;;;;;5.40;3.70;;;;;;;0.71;83.33;98991.06;5094230;28;20048;-90
2021/01/27 11:13:06;;;;;;;6.93;4.07;;;;;;;0.75;83.93;98997.00;5094017;28;20052;-91
2021/01/27 11:15:34;;;;;;;6.73;3.83;;;;;;;0.54;84.33;98989.75;5094603;28;20044;-92
2021/01/27 11:18:03;;;;;;;6.50;4.03;;;;;;;0.37;84.85;98974.25;5094945;28;20056;-91
2021/01/27 11:20:32;;;;;;;6.03;4.07;;;;;;;0.40;84.28;98974.00;5098673;28;20453;-91
2021/01/27 11:23:03;;;;;;;5.17;3.83;;;;;;;0.27;84.81;98976.81;5107660;28;20378;-93
2021/01/27 11:25:33;;;;;;;7.23;4.03;;;;;;;0.39;84.11;98981.16;5094152;28;20376;-91
2021/01/27 11:28:01;;;;;;;7.53;3.63;;;;;;;0.41;84.28;98975.72;5093793;28;20408;-91
2021/01/27 11:30:30;;;;;;;4.57;3.33;;;;;;;0.59;84.28;98992.91;5093582;28;20060;-91
2021/01/27 11:33:02;;;;;;;3.93;2.87;;;;;;;0.47;84.22;98962.66;5110269;28;20587;-91
2021/01/27 11:35:29;;;;;;;5.00;2.97;;;;;;;0.55;83.84;98954.00;5097380;28;20498;-91
2021/01/27 11:37:57;;;;;;;3.90;2.23;;;;;;;0.52;83.21;98954.25;5094621;28;20048;-89
2021/01/27 11:40:27;;;;;;;3.73;2.57;;;;;;;0.30;84.28;98944.47;5103736;28;20043;-90
2021/01/27 11:42:59;;;;;;;3.35;2.10;;;;;;;0.28;85.08;98931.22;5115555;28;20052;-89
2021/01/27 11:45:28;;;;;;;3.27;1.70;;;;;;;0.28;83.81;98928.53;5093126;28;20044;-89
2021/01/27 11:47:55;;;;;;;5.83;2.10;;;;;;;0.34;84.32;98922.69;5093936;28;20067;-89
2021/01/27 11:50:25;;;;;;;3.43;2.07;;;;;;;0.42;84.07;98930.13;5098423;28;20040;-85
2021/01/27 11:52:52;;;;;;;4.57;2.93;;;;;;;0.52;84.16;98951.59;5106888;28;20181;-90
2021/01/27 11:55:21;;;;;;;3.10;2.60;;;;;;;0.67;83.44;98955.66;5112062;28;20572;-90
2021/01/27 11:57:48;;;;;;;3.90;2.50;;;;;;;0.80;83.29;98950.16;5113828;28;20054;-90
2021/01/27 12:00:17;;;;;;;3.27;2.50;;;;;;;0.82;82.43;98942.84;5109981;28;20052;-89
2021/01/27 12:02:49;;;;;;;3.67;2.67;;;;;;;0.95;82.30;98963.22;5101720;28;20075;-89
2021/01/27 12:05:17;;;;;;;3.87;2.60;;;;;;;0.90;82.45;98928.81;5107041;28;20048;-89
2021/01/27 12:07:45;;;;;;;6.80;3.23;;;;;;;1.27;81.51;98936.41;5092972;28;20126;-88
2021/01/27 12:10:14;;;;;;;5.93;2.80;;;;;;;1.57;80.55;98942.78;5092189;28;20047;-89
2021/01/27 12:12:41;;;;;;;3.50;2.73;;;;;;;1.51;79.52;98908.50;5092798;28;20522;-88
2021/01/27 12:15:08;;;;;;;4.10;2.80;;;;;;;1.77;79.44;98930.31;5092070;28;20044;-89
2021/01/27 12:17:35;;;;;;;5.40;2.85;;;;;;;1.99;78.79;98897.13;5093368;28;20040;-89
2021/01/27 12:20:02;;;;;;;4.10;3.23;;;;;;;2.21;78.53;98938.94;5091708;28;20129;-88
2021/01/27 12:22:29;;;;;;;4.18;3.10;;;;;;;2.21;77.83;98911.28;5093632;28;20058;-88
2021/01/27 12:24:59;;;;;;;9.32;3.33;;;;;;;2.30;77.77;98889.84;5111990;28;20055;-88
2021/01/27 12:27:26;;;;;;;4.55;3.03;;;;;;;2.48;76.33;98898.06;5112526;28;20051;-88
2021/01/27 12:29:52;;;;;;;9.95;2.72;;;;;;;2.23;77.13;98891.38;5095379;28;20056;-88
2021/01/27 12:32:21;;;;;;;3.00;2.30;;;;;;;2.21;77.34;98908.59;5091705;28;20051;-89
2021/01/27 12:34:47;;;;;;;7.63;2.65;;;;;;;2.26;77.53;98925.97;5097730;28;20062;-89
2021/01/27 12:37:16;;;;;;;6.28;2.90;;;;;;;2.16;78.21;98897.44;5112592;28;20051;-89